sensor_id;sensor_type;location;lat;lon;timestamp;temperature;humidity
32394;DHT22;18853;45.426;9.206;2024-03-29T00:01:46;15.70;60.00
32394;DHT22;18853;45.426;9.206;2024-03-29T00:04:12;15.70;60.20
32394;DHT22;18853;45.426;9.206;2024-03-29T00:06:37;15.70;60.30
32394;DHT22;18853;45.426;9.206;2024-03-29T00:09:03;15.80;60.30
32394;DHT22;18853;45.426;9.206;2024-03-29T00:11:28;15.80;60.20
32394;DHT22;18853;45.426;9.206;2024-03-29T00:13:54;15.80;60.10
32394;DHT22;18853;45.426;9.206;2024-03-29T00:16:20;15.80;60.00
32394;DHT22;18853;45.426;9.206;2024-03-29T00:18:48;15.80;60.10
32394;DHT22;18853;45.426;9.206;2024-03-29T00:21:13;15.80;60.00
32394;DHT22;18853;45.426;9.206;2024-03-29T00:23:40;15.70;60.00
32394;DHT22;18853;45.426;9.206;2024-03-29T00:26:05;15.80;60.00
32394;DHT22;18853;45.426;9.206;2024-03-29T00:28:32;15.70;59.90
32394;DHT22;18853;45.426;9.206;2024-03-29T00:30:58;15.70;60.20
32394;DHT22;18853;45.426;9.206;2024-03-29T00:33:24;15.70;60.20
32394;DHT22;18853;45.426;9.206;2024-03-29T00:35:49;15.70;60.00
32394;DHT22;18853;45.426;9.206;2024-03-29T00:38:15;15.70;60.10
32394;DHT22;18853;45.426;9.206;2024-03-29T00:40:40;15.80;60.20
32394;DHT22;18853;45.426;9.206;2024-03-29T00:43:06;15.80;60.10
32394;DHT22;18853;45.426;9.206;2024-03-29T00:45:33;15.80;60.20
32394;DHT22;18853;45.426;9.206;2024-03-29T00:47:58;15.80;60.20
32394;DHT22;18853;45.426;9.206;2024-03-29T00:50:24;15.70;60.50
32394;DHT22;18853;45.426;9.206;2024-03-29T00:52:49;15.60;60.60
32394;DHT22;18853;45.426;9.206;2024-03-29T00:55:15;15.60;60.80
32394;DHT22;18853;45.426;9.206;2024-03-29T00:57:41;15.60;60.80
32394;DHT22;18853;45.426;9.206;2024-03-29T01:00:07;15.50;60.80
32394;DHT22;18853;45.426;9.206;2024-03-29T01:02:33;15.50;60.90
32394;DHT22;18853;45.426;9.206;2024-03-29T01:04:58;15.50;60.90
32394;DHT22;18853;45.426;9.206;2024-03-29T01:07:24;15.50;60.80
32394;DHT22;18853;45.426;9.206;2024-03-29T01:09:50;15.50;61.10
32394;DHT22;18853;45.426;9.206;2024-03-29T01:12:15;15.50;61.10
32394;DHT22;18853;45.426;9.206;2024-03-29T01:14:41;15.50;61.10
32394;DHT22;18853;45.426;9.206;2024-03-29T01:17:06;15.50;61.10
32394;DHT22;18853;45.426;9.206;2024-03-29T01:19:32;15.50;61.00
32394;DHT22;18853;45.426;9.206;2024-03-29T01:21:58;15.50;61.00
32394;DHT22;18853;45.426;9.206;2024-03-29T01:24:23;15.60;60.70
32394;DHT22;18853;45.426;9.206;2024-03-29T01:26:49;15.50;60.70
32394;DHT22;18853;45.426;9.206;2024-03-29T01:29:15;15.60;60.80
32394;DHT22;18853;45.426;9.206;2024-03-29T01:31:40;15.50;60.70
32394;DHT22;18853;45.426;9.206;2024-03-29T01:34:06;15.60;60.90
32394;DHT22;18853;45.426;9.206;2024-03-29T01:36:32;15.70;60.70
32394;DHT22;18853;45.426;9.206;2024-03-29T01:38:57;15.70;60.50
32394;DHT22;18853;45.426;9.206;2024-03-29T01:41:24;15.70;60.60
32394;DHT22;18853;45.426;9.206;2024-03-29T01:43:52;15.70;60.70
32394;DHT22;18853;45.426;9.206;2024-03-29T01:46:23;15.70;60.80
32394;DHT22;18853;45.426;9.206;2024-03-29T01:48:51;15.80;60.90
32394;DHT22;18853;45.426;9.206;2024-03-29T01:51:18;15.80;60.70
32394;DHT22;18853;45.426;9.206;2024-03-29T01:53:45;15.80;60.80
32394;DHT22;18853;45.426;9.206;2024-03-29T01:56:11;15.80;61.10
32394;DHT22;18853;45.426;9.206;2024-03-29T01:58:38;15.80;61.00
32394;DHT22;18853;45.426;9.206;2024-03-29T02:01:05;15.80;61.00
32394;DHT22;18853;45.426;9.206;2024-03-29T02:03:32;15.80;61.00
32394;DHT22;18853;45.426;9.206;2024-03-29T02:05:58;15.80;61.00
32394;DHT22;18853;45.426;9.206;2024-03-29T02:08:25;15.70;61.00
32394;DHT22;18853;45.426;9.206;2024-03-29T02:10:51;15.60;61.20
32394;DHT22;18853;45.426;9.206;2024-03-29T02:13:17;15.50;61.80
32394;DHT22;18853;45.426;9.206;2024-03-29T02:15:42;15.60;61.70
32394;DHT22;18853;45.426;9.206;2024-03-29T02:18:08;15.40;62.10
32394;DHT22;18853;45.426;9.206;2024-03-29T02:20:34;15.40;62.20
32394;DHT22;18853;45.426;9.206;2024-03-29T02:23:19;15.40;62.10
32394;DHT22;18853;45.426;9.206;2024-03-29T02:25:45;15.50;61.90
32394;DHT22;18853;45.426;9.206;2024-03-29T02:28:12;15.40;62.30
32394;DHT22;18853;45.426;9.206;2024-03-29T02:30:38;15.40;62.30
32394;DHT22;18853;45.426;9.206;2024-03-29T02:33:03;15.40;62.30
32394;DHT22;18853;45.426;9.206;2024-03-29T02:35:29;15.40;62.50
32394;DHT22;18853;45.426;9.206;2024-03-29T02:37:55;15.40;62.60
32394;DHT22;18853;45.426;9.206;2024-03-29T02:40:21;15.40;62.60
32394;DHT22;18853;45.426;9.206;2024-03-29T02:42:50;15.40;62.50
32394;DHT22;18853;45.426;9.206;2024-03-29T02:45:19;15.40;62.40
32394;DHT22;18853;45.426;9.206;2024-03-29T02:47:44;15.50;62.30
32394;DHT22;18853;45.426;9.206;2024-03-29T02:50:12;15.40;62.20
32394;DHT22;18853;45.426;9.206;2024-03-29T02:52:38;15.40;62.20
32394;DHT22;18853;45.426;9.206;2024-03-29T02:55:04;15.50;62.10
32394;DHT22;18853;45.426;9.206;2024-03-29T02:57:30;15.40;62.10
32394;DHT22;18853;45.426;9.206;2024-03-29T02:59:55;15.30;62.40
32394;DHT22;18853;45.426;9.206;2024-03-29T03:02:21;15.30;62.60
32394;DHT22;18853;45.426;9.206;2024-03-29T03:04:46;15.30;62.80
32394;DHT22;18853;45.426;9.206;2024-03-29T03:07:12;15.30;62.60
32394;DHT22;18853;45.426;9.206;2024-03-29T03:09:56;15.30;62.60
32394;DHT22;18853;45.426;9.206;2024-03-29T03:12:40;15.30;62.80
32394;DHT22;18853;45.426;9.206;2024-03-29T03:15:06;15.30;62.60
32394;DHT22;18853;45.426;9.206;2024-03-29T03:17:32;15.30;62.80
32394;DHT22;18853;45.426;9.206;2024-03-29T03:19:57;15.30;62.80
32394;DHT22;18853;45.426;9.206;2024-03-29T03:22:24;15.30;62.90
32394;DHT22;18853;45.426;9.206;2024-03-29T03:24:49;15.30;63.80
32394;DHT22;18853;45.426;9.206;2024-03-29T03:27:15;15.40;63.10
32394;DHT22;18853;45.426;9.206;2024-03-29T03:29:40;15.50;62.80
32394;DHT22;18853;45.426;9.206;2024-03-29T03:32:06;15.50;62.70
32394;DHT22;18853;45.426;9.206;2024-03-29T03:34:32;15.40;62.60
32394;DHT22;18853;45.426;9.206;2024-03-29T03:36:58;15.40;62.60
32394;DHT22;18853;45.426;9.206;2024-03-29T03:39:24;15.60;62.80
32394;DHT22;18853;45.426;9.206;2024-03-29T03:41:50;15.60;62.30
32394;DHT22;18853;45.426;9.206;2024-03-29T03:44:16;15.60;62.30
32394;DHT22;18853;45.426;9.206;2024-03-29T03:46:41;15.60;62.20
32394;DHT22;18853;45.426;9.206;2024-03-29T03:49:07;15.60;62.20
32394;DHT22;18853;45.426;9.206;2024-03-29T03:51:33;15.70;62.10
32394;DHT22;18853;45.426;9.206;2024-03-29T03:53:58;15.80;61.80
32394;DHT22;18853;45.426;9.206;2024-03-29T03:56:24;15.80;61.40
32394;DHT22;18853;45.426;9.206;2024-03-29T03:58:49;15.80;61.30
32394;DHT22;18853;45.426;9.206;2024-03-29T04:01:15;15.80;61.40
32394;DHT22;18853;45.426;9.206;2024-03-29T04:03:40;15.70;61.50
32394;DHT22;18853;45.426;9.206;2024-03-29T04:06:06;15.70;61.60
32394;DHT22;18853;45.426;9.206;2024-03-29T04:08:32;15.70;62.70
32394;DHT22;18853;45.426;9.206;2024-03-29T04:11:04;15.70;61.90
32394;DHT22;18853;45.426;9.206;2024-03-29T04:13:30;15.80;61.70
32394;DHT22;18853;45.426;9.206;2024-03-29T04:16:03;15.70;61.60
32394;DHT22;18853;45.426;9.206;2024-03-29T04:18:29;15.70;61.90
32394;DHT22;18853;45.426;9.206;2024-03-29T04:20:59;15.60;62.20
32394;DHT22;18853;45.426;9.206;2024-03-29T04:23:25;15.70;62.50
32394;DHT22;18853;45.426;9.206;2024-03-29T04:25:57;15.70;62.20
32394;DHT22;18853;45.426;9.206;2024-03-29T04:28:23;15.70;61.90
32394;DHT22;18853;45.426;9.206;2024-03-29T04:30:56;15.70;62.00
32394;DHT22;18853;45.426;9.206;2024-03-29T04:33:23;15.70;61.90
32394;DHT22;18853;45.426;9.206;2024-03-29T04:36:00;15.70;62.00
32394;DHT22;18853;45.426;9.206;2024-03-29T04:38:27;15.80;62.30
32394;DHT22;18853;45.426;9.206;2024-03-29T04:40:54;15.90;62.00
32394;DHT22;18853;45.426;9.206;2024-03-29T04:43:23;15.90;61.70
32394;DHT22;18853;45.426;9.206;2024-03-29T04:45:49;15.80;61.60
32394;DHT22;18853;45.426;9.206;2024-03-29T04:48:14;15.80;62.50
32394;DHT22;18853;45.426;9.206;2024-03-29T04:50:40;15.80;61.90
32394;DHT22;18853;45.426;9.206;2024-03-29T04:53:07;15.90;62.30
32394;DHT22;18853;45.426;9.206;2024-03-29T04:55:33;15.80;61.50
32394;DHT22;18853;45.426;9.206;2024-03-29T04:57:59;15.80;61.70
32394;DHT22;18853;45.426;9.206;2024-03-29T05:00:25;15.80;61.60
32394;DHT22;18853;45.426;9.206;2024-03-29T05:02:51;15.90;61.50
32394;DHT22;18853;45.426;9.206;2024-03-29T05:05:16;15.80;61.50
32394;DHT22;18853;45.426;9.206;2024-03-29T05:07:42;15.70;61.50
32394;DHT22;18853;45.426;9.206;2024-03-29T05:10:07;15.70;61.50
32394;DHT22;18853;45.426;9.206;2024-03-29T05:12:35;15.70;61.60
32394;DHT22;18853;45.426;9.206;2024-03-29T05:15:00;15.70;62.40
32394;DHT22;18853;45.426;9.206;2024-03-29T05:17:26;15.70;61.50
32394;DHT22;18853;45.426;9.206;2024-03-29T05:19:53;15.80;61.40
32394;DHT22;18853;45.426;9.206;2024-03-29T05:22:19;15.80;61.00
32394;DHT22;18853;45.426;9.206;2024-03-29T05:24:44;15.70;60.90
32394;DHT22;18853;45.426;9.206;2024-03-29T05:27:11;15.70;61.00
32394;DHT22;18853;45.426;9.206;2024-03-29T05:29:37;15.70;61.00
32394;DHT22;18853;45.426;9.206;2024-03-29T05:32:04;15.70;61.10
32394;DHT22;18853;45.426;9.206;2024-03-29T05:34:29;15.60;61.00
32394;DHT22;18853;45.426;9.206;2024-03-29T05:36:55;15.70;61.00
32394;DHT22;18853;45.426;9.206;2024-03-29T05:39:21;15.80;60.80
32394;DHT22;18853;45.426;9.206;2024-03-29T05:41:46;15.80;60.60
32394;DHT22;18853;45.426;9.206;2024-03-29T05:44:13;15.80;60.50
32394;DHT22;18853;45.426;9.206;2024-03-29T05:46:38;15.80;60.50
32394;DHT22;18853;45.426;9.206;2024-03-29T05:49:05;15.80;60.50
32394;DHT22;18853;45.426;9.206;2024-03-29T05:51:31;15.80;60.70
32394;DHT22;18853;45.426;9.206;2024-03-29T05:53:57;15.70;60.80
32394;DHT22;18853;45.426;9.206;2024-03-29T05:56:23;15.70;61.10
32394;DHT22;18853;45.426;9.206;2024-03-29T05:58:48;15.60;61.20
32394;DHT22;18853;45.426;9.206;2024-03-29T06:01:14;15.60;61.40
32394;DHT22;18853;45.426;9.206;2024-03-29T06:03:39;15.70;61.50
32394;DHT22;18853;45.426;9.206;2024-03-29T06:06:05;15.70;61.60
32394;DHT22;18853;45.426;9.206;2024-03-29T06:08:32;15.70;61.70
32394;DHT22;18853;45.426;9.206;2024-03-29T06:10:58;15.60;61.90
32394;DHT22;18853;45.426;9.206;2024-03-29T06:13:24;15.60;62.10
32394;DHT22;18853;45.426;9.206;2024-03-29T06:16:08;15.60;62.10
32394;DHT22;18853;45.426;9.206;2024-03-29T06:18:52;15.50;62.00
32394;DHT22;18853;45.426;9.206;2024-03-29T06:21:18;15.50;62.40
32394;DHT22;18853;45.426;9.206;2024-03-29T06:23:44;15.40;62.50
32394;DHT22;18853;45.426;9.206;2024-03-29T06:26:09;15.40;62.70
32394;DHT22;18853;45.426;9.206;2024-03-29T06:28:35;15.30;62.90
32394;DHT22;18853;45.426;9.206;2024-03-29T06:31:00;15.30;63.20
32394;DHT22;18853;45.426;9.206;2024-03-29T06:33:27;15.30;63.40
32394;DHT22;18853;45.426;9.206;2024-03-29T06:35:56;15.30;63.50
32394;DHT22;18853;45.426;9.206;2024-03-29T06:38:22;15.30;63.70
32394;DHT22;18853;45.426;9.206;2024-03-29T06:40:47;15.30;63.70
32394;DHT22;18853;45.426;9.206;2024-03-29T06:43:13;15.20;63.70
32394;DHT22;18853;45.426;9.206;2024-03-29T06:45:42;15.30;63.80
32394;DHT22;18853;45.426;9.206;2024-03-29T06:48:10;15.20;64.00
32394;DHT22;18853;45.426;9.206;2024-03-29T06:50:37;15.10;63.90
32394;DHT22;18853;45.426;9.206;2024-03-29T06:53:03;15.10;64.20
32394;DHT22;18853;45.426;9.206;2024-03-29T06:55:30;15.10;64.30
32394;DHT22;18853;45.426;9.206;2024-03-29T06:57:56;15.00;64.40
32394;DHT22;18853;45.426;9.206;2024-03-29T07:00:22;15.00;64.40
32394;DHT22;18853;45.426;9.206;2024-03-29T07:02:47;15.00;64.40
32394;DHT22;18853;45.426;9.206;2024-03-29T07:05:13;15.00;64.40
32394;DHT22;18853;45.426;9.206;2024-03-29T07:07:38;15.10;64.40
32394;DHT22;18853;45.426;9.206;2024-03-29T07:10:06;15.10;64.60
32394;DHT22;18853;45.426;9.206;2024-03-29T07:12:32;15.10;64.60
32394;DHT22;18853;45.426;9.206;2024-03-29T07:14:57;15.10;64.50
32394;DHT22;18853;45.426;9.206;2024-03-29T07:17:23;15.00;64.20
32394;DHT22;18853;45.426;9.206;2024-03-29T07:19:48;15.00;64.30
32394;DHT22;18853;45.426;9.206;2024-03-29T07:22:14;15.00;64.40
32394;DHT22;18853;45.426;9.206;2024-03-29T07:24:40;15.00;64.60
32394;DHT22;18853;45.426;9.206;2024-03-29T07:27:05;15.00;64.80
32394;DHT22;18853;45.426;9.206;2024-03-29T07:29:31;15.00;64.80
32394;DHT22;18853;45.426;9.206;2024-03-29T07:31:59;15.00;64.90
32394;DHT22;18853;45.426;9.206;2024-03-29T07:34:25;15.00;64.80
32394;DHT22;18853;45.426;9.206;2024-03-29T07:36:51;15.00;64.80
32394;DHT22;18853;45.426;9.206;2024-03-29T07:39:17;15.00;64.70
32394;DHT22;18853;45.426;9.206;2024-03-29T07:41:42;15.00;64.80
32394;DHT22;18853;45.426;9.206;2024-03-29T07:44:08;15.00;65.00
32394;DHT22;18853;45.426;9.206;2024-03-29T07:46:35;14.90;65.00
32394;DHT22;18853;45.426;9.206;2024-03-29T07:49:02;14.90;65.10
32394;DHT22;18853;45.426;9.206;2024-03-29T07:51:28;14.80;65.00
32394;DHT22;18853;45.426;9.206;2024-03-29T07:53:54;14.80;65.10
32394;DHT22;18853;45.426;9.206;2024-03-29T07:56:20;15.00;66.40
32394;DHT22;18853;45.426;9.206;2024-03-29T07:58:50;15.30;65.50
32394;DHT22;18853;45.426;9.206;2024-03-29T08:01:19;15.50;64.70
32394;DHT22;18853;45.426;9.206;2024-03-29T08:03:45;15.70;64.00
32394;DHT22;18853;45.426;9.206;2024-03-29T08:06:11;15.80;63.20
32394;DHT22;18853;45.426;9.206;2024-03-29T08:08:36;15.90;62.80
32394;DHT22;18853;45.426;9.206;2024-03-29T08:11:02;15.90;62.40
32394;DHT22;18853;45.426;9.206;2024-03-29T08:13:28;15.90;62.10
32394;DHT22;18853;45.426;9.206;2024-03-29T08:16:00;16.00;62.00
32394;DHT22;18853;45.426;9.206;2024-03-29T08:18:27;16.00;61.50
32394;DHT22;18853;45.426;9.206;2024-03-29T08:20:54;16.10;62.00
32394;DHT22;18853;45.426;9.206;2024-03-29T08:23:24;16.10;61.70
32394;DHT22;18853;45.426;9.206;2024-03-29T08:25:50;16.10;61.50
32394;DHT22;18853;45.426;9.206;2024-03-29T08:28:17;16.20;61.30
32394;DHT22;18853;45.426;9.206;2024-03-29T08:30:43;16.30;61.10
32394;DHT22;18853;45.426;9.206;2024-03-29T08:33:09;16.30;60.80
32394;DHT22;18853;45.426;9.206;2024-03-29T08:35:35;16.40;60.80
32394;DHT22;18853;45.426;9.206;2024-03-29T08:38:01;16.30;60.50
32394;DHT22;18853;45.426;9.206;2024-03-29T08:40:29;16.30;60.60
32394;DHT22;18853;45.426;9.206;2024-03-29T08:42:57;16.30;60.70
32394;DHT22;18853;45.426;9.206;2024-03-29T08:45:23;16.40;60.80
32394;DHT22;18853;45.426;9.206;2024-03-29T08:47:49;16.40;60.40
32394;DHT22;18853;45.426;9.206;2024-03-29T08:50:15;16.50;60.40
32394;DHT22;18853;45.426;9.206;2024-03-29T08:52:41;16.50;60.20
32394;DHT22;18853;45.426;9.206;2024-03-29T08:55:07;16.40;60.00
32394;DHT22;18853;45.426;9.206;2024-03-29T08:57:33;16.20;60.30
32394;DHT22;18853;45.426;9.206;2024-03-29T08:59:58;16.00;60.90
32394;DHT22;18853;45.426;9.206;2024-03-29T09:02:24;15.80;61.50
32394;DHT22;18853;45.426;9.206;2024-03-29T09:04:50;15.70;62.70
32394;DHT22;18853;45.426;9.206;2024-03-29T09:07:15;15.60;62.20
32394;DHT22;18853;45.426;9.206;2024-03-29T09:09:41;15.50;62.70
32394;DHT22;18853;45.426;9.206;2024-03-29T09:12:10;15.40;63.10
32394;DHT22;18853;45.426;9.206;2024-03-29T09:14:35;15.40;63.00
32394;DHT22;18853;45.426;9.206;2024-03-29T09:17:01;15.40;64.10
32394;DHT22;18853;45.426;9.206;2024-03-29T09:19:29;15.30;63.60
32394;DHT22;18853;45.426;9.206;2024-03-29T09:21:58;15.40;63.80
32394;DHT22;18853;45.426;9.206;2024-03-29T09:24:24;15.40;63.80
32394;DHT22;18853;45.426;9.206;2024-03-29T09:26:51;15.30;63.70
32394;DHT22;18853;45.426;9.206;2024-03-29T09:29:17;15.20;64.00
32394;DHT22;18853;45.426;9.206;2024-03-29T09:31:45;15.20;64.20
32394;DHT22;18853;45.426;9.206;2024-03-29T09:34:11;15.20;64.30
32394;DHT22;18853;45.426;9.206;2024-03-29T09:36:36;15.20;64.40
32394;DHT22;18853;45.426;9.206;2024-03-29T09:39:03;15.20;64.50
32394;DHT22;18853;45.426;9.206;2024-03-29T09:41:30;15.20;64.50
32394;DHT22;18853;45.426;9.206;2024-03-29T09:43:58;15.30;64.30
32394;DHT22;18853;45.426;9.206;2024-03-29T09:46:25;15.30;64.60
32394;DHT22;18853;45.426;9.206;2024-03-29T09:48:54;15.30;64.70
32394;DHT22;18853;45.426;9.206;2024-03-29T09:51:21;15.20;64.80
32394;DHT22;18853;45.426;9.206;2024-03-29T09:53:47;15.30;64.80
32394;DHT22;18853;45.426;9.206;2024-03-29T09:56:14;15.30;64.70
32394;DHT22;18853;45.426;9.206;2024-03-29T09:58:39;15.30;65.50
32394;DHT22;18853;45.426;9.206;2024-03-29T10:01:07;15.30;65.00
32394;DHT22;18853;45.426;9.206;2024-03-29T10:03:42;15.30;65.30
32394;DHT22;18853;45.426;9.206;2024-03-29T10:06:10;15.30;65.40
32394;DHT22;18853;45.426;9.206;2024-03-29T10:08:39;15.40;65.30
32394;DHT22;18853;45.426;9.206;2024-03-29T10:11:05;15.40;65.20
32394;DHT22;18853;45.426;9.206;2024-03-29T10:13:31;15.50;64.80
32394;DHT22;18853;45.426;9.206;2024-03-29T10:15:57;15.50;64.50
32394;DHT22;18853;45.426;9.206;2024-03-29T10:21:01;15.60;64.30
32394;DHT22;18853;45.426;9.206;2024-03-29T10:23:28;15.60;63.90
32394;DHT22;18853;45.426;9.206;2024-03-29T10:25:54;15.60;64.20
32394;DHT22;18853;45.426;9.206;2024-03-29T10:28:19;15.70;64.30
32394;DHT22;18853;45.426;9.206;2024-03-29T10:30:45;15.60;64.20
32394;DHT22;18853;45.426;9.206;2024-03-29T10:33:12;15.60;64.40
32394;DHT22;18853;45.426;9.206;2024-03-29T10:35:44;15.60;64.40
32394;DHT22;18853;45.426;9.206;2024-03-29T10:38:11;15.70;64.70
32394;DHT22;18853;45.426;9.206;2024-03-29T10:40:38;15.60;65.70
32394;DHT22;18853;45.426;9.206;2024-03-29T10:43:09;15.70;65.10
32394;DHT22;18853;45.426;9.206;2024-03-29T10:45:38;15.60;65.30
32394;DHT22;18853;45.426;9.206;2024-03-29T10:48:05;15.60;65.50
32394;DHT22;18853;45.426;9.206;2024-03-29T10:50:35;15.60;65.70
32394;DHT22;18853;45.426;9.206;2024-03-29T10:53:02;15.60;65.70
32394;DHT22;18853;45.426;9.206;2024-03-29T10:55:29;15.60;65.80
32394;DHT22;18853;45.426;9.206;2024-03-29T10:57:57;15.70;65.70
32394;DHT22;18853;45.426;9.206;2024-03-29T11:00:24;15.80;65.60
32394;DHT22;18853;45.426;9.206;2024-03-29T11:05:30;15.90;65.70
32394;DHT22;18853;45.426;9.206;2024-03-29T11:07:56;15.90;65.60
32394;DHT22;18853;45.426;9.206;2024-03-29T11:10:41;15.80;65.80
32394;DHT22;18853;45.426;9.206;2024-03-29T11:13:23;15.90;65.90
32394;DHT22;18853;45.426;9.206;2024-03-29T11:15:50;15.90;66.00
32394;DHT22;18853;45.426;9.206;2024-03-29T11:18:17;15.90;65.90
32394;DHT22;18853;45.426;9.206;2024-03-29T11:20:46;16.00;65.80
32394;DHT22;18853;45.426;9.206;2024-03-29T11:23:17;16.00;65.70
32394;DHT22;18853;45.426;9.206;2024-03-29T11:25:45;16.10;65.80
32394;DHT22;18853;45.426;9.206;2024-03-29T11:28:15;16.10;65.80
32394;DHT22;18853;45.426;9.206;2024-03-29T11:30:49;16.20;65.70
32394;DHT22;18853;45.426;9.206;2024-03-29T11:33:28;16.10;65.60
32394;DHT22;18853;45.426;9.206;2024-03-29T11:35:54;15.90;66.30
32394;DHT22;18853;45.426;9.206;2024-03-29T11:38:20;16.00;66.00
32394;DHT22;18853;45.426;9.206;2024-03-29T11:41:00;16.10;65.90
32394;DHT22;18853;45.426;9.206;2024-03-29T11:43:26;16.20;66.10
32394;DHT22;18853;45.426;9.206;2024-03-29T11:45:54;16.20;66.90
32394;DHT22;18853;45.426;9.206;2024-03-29T11:48:23;16.20;66.00
32394;DHT22;18853;45.426;9.206;2024-03-29T11:50:52;16.30;66.00
32394;DHT22;18853;45.426;9.206;2024-03-29T11:53:19;16.30;65.70
32394;DHT22;18853;45.426;9.206;2024-03-29T11:55:45;16.30;65.40
32394;DHT22;18853;45.426;9.206;2024-03-29T11:58:10;16.30;65.50
32394;DHT22;18853;45.426;9.206;2024-03-29T12:00:38;16.40;65.70
32394;DHT22;18853;45.426;9.206;2024-03-29T12:03:06;16.40;65.80
32394;DHT22;18853;45.426;9.206;2024-03-29T12:05:32;16.40;65.70
32394;DHT22;18853;45.426;9.206;2024-03-29T12:07:58;16.50;65.70
32394;DHT22;18853;45.426;9.206;2024-03-29T12:10:28;16.50;65.70
32394;DHT22;18853;45.426;9.206;2024-03-29T12:12:57;16.50;65.50
32394;DHT22;18853;45.426;9.206;2024-03-29T12:15:27;16.60;65.60
32394;DHT22;18853;45.426;9.206;2024-03-29T12:18:11;16.60;65.60
32394;DHT22;18853;45.426;9.206;2024-03-29T12:20:38;16.60;65.40
32394;DHT22;18853;45.426;9.206;2024-03-29T12:23:09;16.60;65.30
32394;DHT22;18853;45.426;9.206;2024-03-29T12:25:37;16.70;65.20
32394;DHT22;18853;45.426;9.206;2024-03-29T12:28:03;16.70;65.50
32394;DHT22;18853;45.426;9.206;2024-03-29T12:30:29;16.80;65.50
32394;DHT22;18853;45.426;9.206;2024-03-29T12:35:28;16.80;64.70
32394;DHT22;18853;45.426;9.206;2024-03-29T12:37:59;16.80;65.00
32394;DHT22;18853;45.426;9.206;2024-03-29T12:40:26;16.80;64.60
32394;DHT22;18853;45.426;9.206;2024-03-29T12:42:52;16.80;64.50
32394;DHT22;18853;45.426;9.206;2024-03-29T12:45:18;16.80;64.60
32394;DHT22;18853;45.426;9.206;2024-03-29T12:47:45;16.80;64.20
32394;DHT22;18853;45.426;9.206;2024-03-29T12:50:28;16.70;64.20
32394;DHT22;18853;45.426;9.206;2024-03-29T12:52:55;16.80;64.10
32394;DHT22;18853;45.426;9.206;2024-03-29T12:55:22;16.80;64.50
32394;DHT22;18853;45.426;9.206;2024-03-29T12:57:49;16.80;64.60
32394;DHT22;18853;45.426;9.206;2024-03-29T13:00:14;16.80;65.60
32394;DHT22;18853;45.426;9.206;2024-03-29T13:02:40;17.00;64.80
32394;DHT22;18853;45.426;9.206;2024-03-29T13:05:06;17.00;64.60
32394;DHT22;18853;45.426;9.206;2024-03-29T13:07:32;17.00;64.50
32394;DHT22;18853;45.426;9.206;2024-03-29T13:09:59;17.10;64.40
32394;DHT22;18853;45.426;9.206;2024-03-29T13:12:31;17.10;64.30
32394;DHT22;18853;45.426;9.206;2024-03-29T13:15:03;17.10;64.80
32394;DHT22;18853;45.426;9.206;2024-03-29T13:17:39;17.10;64.00
32394;DHT22;18853;45.426;9.206;2024-03-29T13:20:05;17.10;63.90
32394;DHT22;18853;45.426;9.206;2024-03-29T13:22:31;17.10;63.80
32394;DHT22;18853;45.426;9.206;2024-03-29T13:24:56;17.10;63.60
32394;DHT22;18853;45.426;9.206;2024-03-29T13:27:22;17.10;63.50
32394;DHT22;18853;45.426;9.206;2024-03-29T13:29:48;17.10;63.30
32394;DHT22;18853;45.426;9.206;2024-03-29T13:32:14;17.10;63.10
32394;DHT22;18853;45.426;9.206;2024-03-29T13:34:40;17.20;62.60
32394;DHT22;18853;45.426;9.206;2024-03-29T13:37:06;17.20;63.20
32394;DHT22;18853;45.426;9.206;2024-03-29T13:39:31;17.20;62.50
32394;DHT22;18853;45.426;9.206;2024-03-29T13:41:57;17.20;62.60
32394;DHT22;18853;45.426;9.206;2024-03-29T13:44:24;17.20;62.80
32394;DHT22;18853;45.426;9.206;2024-03-29T13:46:49;17.20;62.80
32394;DHT22;18853;45.426;9.206;2024-03-29T13:49:16;17.30;62.80
32394;DHT22;18853;45.426;9.206;2024-03-29T13:51:46;17.30;62.90
32394;DHT22;18853;45.426;9.206;2024-03-29T13:54:11;17.30;63.10
32394;DHT22;18853;45.426;9.206;2024-03-29T13:56:37;17.30;63.00
32394;DHT22;18853;45.426;9.206;2024-03-29T13:59:02;17.20;62.80
32394;DHT22;18853;45.426;9.206;2024-03-29T14:01:28;17.30;62.70
32394;DHT22;18853;45.426;9.206;2024-03-29T14:03:54;17.30;62.50
32394;DHT22;18853;45.426;9.206;2024-03-29T14:06:20;17.20;62.50
32394;DHT22;18853;45.426;9.206;2024-03-29T14:08:46;17.30;62.60
32394;DHT22;18853;45.426;9.206;2024-03-29T14:11:11;17.20;62.70
32394;DHT22;18853;45.426;9.206;2024-03-29T14:13:39;17.20;62.90
32394;DHT22;18853;45.426;9.206;2024-03-29T14:16:05;17.10;62.90
32394;DHT22;18853;45.426;9.206;2024-03-29T14:18:30;17.10;63.80
32394;DHT22;18853;45.426;9.206;2024-03-29T14:20:57;17.10;63.20
32394;DHT22;18853;45.426;9.206;2024-03-29T14:23:22;17.10;63.20
32394;DHT22;18853;45.426;9.206;2024-03-29T14:25:50;17.20;63.20
32394;DHT22;18853;45.426;9.206;2024-03-29T14:28:16;17.10;63.20
32394;DHT22;18853;45.426;9.206;2024-03-29T14:30:47;17.10;63.20
32394;DHT22;18853;45.426;9.206;2024-03-29T14:33:13;17.20;63.40
32394;DHT22;18853;45.426;9.206;2024-03-29T14:35:38;17.10;63.30
32394;DHT22;18853;45.426;9.206;2024-03-29T14:38:04;17.10;63.30
32394;DHT22;18853;45.426;9.206;2024-03-29T14:40:30;17.10;63.20
32394;DHT22;18853;45.426;9.206;2024-03-29T14:42:55;17.10;63.30
32394;DHT22;18853;45.426;9.206;2024-03-29T14:45:23;17.00;63.30
32394;DHT22;18853;45.426;9.206;2024-03-29T14:47:49;17.00;63.30
32394;DHT22;18853;45.426;9.206;2024-03-29T14:50:15;17.00;63.20
32394;DHT22;18853;45.426;9.206;2024-03-29T14:52:41;17.00;63.10
32394;DHT22;18853;45.426;9.206;2024-03-29T14:55:06;17.10;63.00
32394;DHT22;18853;45.426;9.206;2024-03-29T14:57:32;17.10;62.90
32394;DHT22;18853;45.426;9.206;2024-03-29T14:59:58;17.10;63.00
32394;DHT22;18853;45.426;9.206;2024-03-29T15:02:24;17.10;63.00
32394;DHT22;18853;45.426;9.206;2024-03-29T15:04:49;17.00;63.20
32394;DHT22;18853;45.426;9.206;2024-03-29T15:07:15;17.00;63.10
32394;DHT22;18853;45.426;9.206;2024-03-29T15:09:40;17.00;63.00
32394;DHT22;18853;45.426;9.206;2024-03-29T15:12:06;17.10;63.10
32394;DHT22;18853;45.426;9.206;2024-03-29T15:14:34;17.10;63.00
32394;DHT22;18853;45.426;9.206;2024-03-29T15:17:01;17.10;63.00
32394;DHT22;18853;45.426;9.206;2024-03-29T15:19:26;17.10;63.00
32394;DHT22;18853;45.426;9.206;2024-03-29T15:21:52;17.00;63.00
32394;DHT22;18853;45.426;9.206;2024-03-29T15:24:20;16.90;63.00
32394;DHT22;18853;45.426;9.206;2024-03-29T15:26:48;16.90;63.00
32394;DHT22;18853;45.426;9.206;2024-03-29T15:29:18;17.00;63.20
32394;DHT22;18853;45.426;9.206;2024-03-29T15:31:44;16.90;63.10
32394;DHT22;18853;45.426;9.206;2024-03-29T15:34:12;16.90;63.00
32394;DHT22;18853;45.426;9.206;2024-03-29T15:36:38;17.00;63.00